Time,TemperatureF,DewpointF,PressureIn,WindDirection,WindDirectionDegrees,WindSpeedMPH,WindSpeedGustMPH,Humidity,HourlyPrecipIn,Conditions,Clouds,dailyrainin,SoftwareType,DateUTC
2013-08-25 00:03:00,65.0,58.0,30.07,SSW,194,2.0,8.0,78,0.00,,,0.00,weatherlink.com 1.10,2013-08-25 04:03:00,
2013-08-25 00:18:00,65.2,59.0,30.08,SSW,200,2.0,6.0,79,0.00,,,0.00,weatherlink.com 1.10,2013-08-25 04:18:00,
2013-08-25 00:32:00,65.2,59.0,30.08,SW,226,3.0,6.0,79,0.00,,,0.00,weatherlink.com 1.10,2013-08-25 04:32:00,
2013-08-25 00:46:00,65.6,59.0,30.07,South,191,3.0,10.0,79,0.00,,,0.00,weatherlink.com 1.10,2013-08-25 04:46:00,
2013-08-25 01:01:00,66.0,59.0,30.07,SSW,200,4.0,7.0,79,0.00,,,0.00,weatherlink.com 1.10,2013-08-25 05:01:00,
2013-08-25 01:15:00,66.3,60.0,30.06,South,172,4.0,7.0,79,0.00,,,0.00,weatherlink.com 1.10,2013-08-25 05:15:00,
2013-08-25 01:29:00,66.4,60.0,30.06,SW,224,3.0,6.0,80,0.00,,,0.00,weatherlink.com 1.10,2013-08-25 05:29:00,
2013-08-25 01:44:00,66.7,60.0,30.04,SW,228,3.0,7.0,79,0.00,,,0.00,weatherlink.com 1.10,2013-08-25 05:44:00,
2013-08-25 01:58:00,67.0,60.0,30.05,WSW,238,3.0,7.0,79,0.00,,,0.00,weatherlink.com 1.10,2013-08-25 05:58:00,
2013-08-25 02:13:00,67.6,60.0,30.05,WSW,242,5.0,9.0,78,0.00,,,0.00,weatherlink.com 1.10,2013-08-25 06:13:00,
2013-08-25 02:27:00,68.2,61.0,30.04,SW,233,4.0,7.0,77,0.00,,,0.00,weatherlink.com 1.10,2013-08-25 06:27:00,
2013-08-25 02:41:00,68.3,61.0,30.03,WNW,288,4.0,7.0,77,0.00,,,0.00,weatherlink.com 1.10,2013-08-25 06:41:00,
2013-08-25 02:56:00,67.8,61.0,30.04,East,79,2.0,7.0,80,0.00,,,0.00,weatherlink.com 1.10,2013-08-25 06:56:00,
2013-08-25 03:10:00,67.8,61.0,30.04,SSW,206,4.0,9.0,80,0.00,,,0.00,weatherlink.com 1.10,2013-08-25 07:10:00,
2013-08-25 03:25:00,68.2,62.0,30.03,SW,219,2.0,8.0,80,0.00,,,0.00,weatherlink.com 1.10,2013-08-25 07:25:00,
2013-08-25 03:39:00,68.5,62.0,30.03,SW,219,4.0,10.0,80,0.00,,,0.00,weatherlink.com 1.10,2013-08-25 07:39:00,
2013-08-25 03:53:00,68.4,62.0,30.03,SSW,202,2.0,7.0,80,0.00,,,0.00,weatherlink.com 1.10,2013-08-25 07:53:00,
2013-08-25 04:08:00,68.1,62.0,30.03,SW,214,2.0,4.0,81,0.00,,,0.00,weatherlink.com 1.10,2013-08-25 08:08:00,
2013-08-25 04:22:00,68.1,62.0,30.03,SW,217,6.0,10.0,82,0.00,,,0.00,weatherlink.com 1.10,2013-08-25 08:22:00,
2013-08-25 04:36:00,68.2,62.0,30.02,West,262,5.0,6.0,81,0.00,,,0.00,weatherlink.com 1.10,2013-08-25 08:36:00,
2013-08-25 04:50:00,68.1,62.0,30.01,WSW,252,5.0,11.0,82,0.00,,,0.00,weatherlink.com 1.10,2013-08-25 08:50:00,
2013-08-25 05:05:00,67.9,63.0,30.00,WSW,244,6.0,7.0,83,0.00,,,0.00,weatherlink.com 1.10,2013-08-25 09:05:00,
2013-08-25 05:19:00,67.6,63.0,29.98,SW,229,5.0,8.0,85,0.00,,,0.00,weatherlink.com 1.10,2013-08-25 09:19:00,
2013-08-25 05:33:00,67.0,64.0,29.96,NW,314,6.0,13.0,89,0.00,,,0.00,weatherlink.com 1.10,2013-08-25 09:33:00,
2013-08-25 05:48:00,67.2,64.0,29.97,West,272,5.0,10.0,88,0.00,,,0.00,weatherlink.com 1.10,2013-08-25 09:48:00,
2013-08-25 06:02:00,67.4,64.0,29.98,SW,229,1.0,8.0,88,0.00,,,0.00,weatherlink.com 1.10,2013-08-25 10:02:00,
2013-08-25 06:17:00,67.6,64.0,29.98,SSW,207,3.0,8.0,88,0.00,,,0.00,weatherlink.com 1.10,2013-08-25 10:17:00,
2013-08-25 06:31:00,67.7,64.0,29.98,West,276,3.0,7.0,88,0.00,,,0.00,weatherlink.com 1.10,2013-08-25 10:31:00,
2013-08-25 06:45:00,67.8,64.0,29.99,SW,219,3.0,7.0,89,0.00,,,0.00,weatherlink.com 1.10,2013-08-25 10:45:00,
2013-08-25 07:00:00,68.1,64.0,29.99,SW,219,5.0,8.0,88,0.00,,,0.00,weatherlink.com 1.10,2013-08-25 11:00:00,
2013-08-25 07:14:00,68.4,65.0,29.99,SW,224,3.0,7.0,88,0.00,,,0.00,weatherlink.com 1.10,2013-08-25 11:14:00,
2013-08-25 07:29:00,68.7,65.0,29.99,WSW,252,2.0,7.0,88,0.00,,,0.00,weatherlink.com 1.10,2013-08-25 11:29:00,
2013-08-25 07:43:00,69.2,65.0,29.99,South,173,2.0,7.0,88,0.00,,,0.00,weatherlink.com 1.10,2013-08-25 11:43:00,
2013-08-25 07:57:00,69.7,66.0,29.98,SW,233,4.0,6.0,88,0.00,,,0.00,weatherlink.com 1.10,2013-08-25 11:57:00,
2013-08-25 08:12:00,70.5,66.0,29.98,WSW,244,3.0,6.0,87,0.00,,,0.00,weatherlink.com 1.10,2013-08-25 12:12:00,
2013-08-25 08:26:00,71.5,67.0,29.98,West,273,2.0,5.0,87,0.00,,,0.00,weatherlink.com 1.10,2013-08-25 12:26:00,
2013-08-25 08:41:00,72.2,67.0,29.98,SW,235,3.0,6.0,85,0.00,,,0.00,weatherlink.com 1.10,2013-08-25 12:41:00,
2013-08-25 08:55:00,72.4,68.0,29.98,West,267,3.0,8.0,85,0.00,,,0.00,weatherlink.com 1.10,2013-08-25 12:55:00,
2013-08-25 09:09:00,72.7,68.0,29.98,SW,233,0.0,6.0,85,0.00,,,0.00,weatherlink.com 1.10,2013-08-25 13:09:00,
2013-08-25 09:24:00,73.1,68.0,29.98,SSW,193,3.0,10.0,84,0.00,,,0.00,weatherlink.com 1.10,2013-08-25 13:24:00,
2013-08-25 09:38:00,73.5,68.0,29.97,WSW,243,1.0,6.0,84,0.00,,,0.00,weatherlink.com 1.10,2013-08-25 13:38:00,
2013-08-25 09:53:00,73.8,69.0,29.96,SSW,207,2.0,7.0,84,0.00,,,0.00,weatherlink.com 1.10,2013-08-25 13:53:00,
2013-08-25 10:07:00,74.8,69.0,29.96,SSW,205,2.0,7.0,82,0.00,,,0.00,weatherlink.com 1.10,2013-08-25 14:07:00,
2013-08-25 10:21:00,74.8,69.0,29.95,WSW,250,4.0,6.0,83,0.00,,,0.00,weatherlink.com 1.10,2013-08-25 14:21:00,
2013-08-25 10:36:00,75.9,70.0,29.95,WSW,258,2.0,7.0,81,0.00,,,0.00,weatherlink.com 1.10,2013-08-25 14:36:00,
2013-08-25 10:50:00,77.8,71.0,29.95,WNW,295,4.0,7.0,79,0.00,,,0.00,weatherlink.com 1.10,2013-08-25 14:50:00,
2013-08-25 11:05:00,79.4,71.0,29.94,NW,307,1.0,7.0,75,0.00,,,0.00,weatherlink.com 1.10,2013-08-25 15:05:00,
2013-08-25 11:19:00,80.4,72.0,29.93,NW,314,2.0,7.0,75,0.00,,,0.00,weatherlink.com 1.10,2013-08-25 15:19:00,
2013-08-25 11:33:00,81.3,72.0,29.93,WSW,252,1.0,8.0,73,0.00,,,0.00,weatherlink.com 1.10,2013-08-25 15:33:00,
2013-08-25 11:48:00,81.7,72.0,29.93,SSW,205,4.0,7.0,73,0.00,,,0.00,weatherlink.com 1.10,2013-08-25 15:48:00,
2013-08-25 12:02:00,82.4,72.0,29.92,SW,225,3.0,10.0,71,0.00,,,0.00,weatherlink.com 1.10,2013-08-25 16:02:00,
2013-08-25 12:17:00,83.8,73.0,29.92,WSW,237,1.0,9.0,70,0.00,,,0.00,weatherlink.com 1.10,2013-08-25 16:17:00,
2013-08-25 12:31:00,83.8,73.0,29.92,WSW,255,1.0,8.0,70,0.00,,,0.00,weatherlink.com 1.10,2013-08-25 16:31:00,
2013-08-25 12:46:00,84.4,74.0,29.91,WSW,240,4.0,6.0,70,0.00,,,0.00,weatherlink.com 1.10,2013-08-25 16:46:00,
2013-08-25 13:00:00,85.2,73.0,29.92,West,271,1.0,7.0,67,0.00,,,0.00,weatherlink.com 1.10,2013-08-25 17:00:00,
2013-08-25 13:14:00,86.3,74.0,29.91,SW,226,2.0,6.0,68,0.00,,,0.00,weatherlink.com 1.10,2013-08-25 17:14:00,
2013-08-25 13:29:00,87.8,75.0,29.91,SW,234,1.0,6.0,65,0.00,,,0.00,weatherlink.com 1.10,2013-08-25 17:29:00,
2013-08-25 13:43:00,89.3,76.0,29.91,NW,304,0.0,6.0,64,0.00,,,0.00,weatherlink.com 1.10,2013-08-25 17:43:00,
2013-08-25 13:57:00,89.6,75.0,29.90,NNW,330,1.0,5.0,63,0.00,,,0.00,weatherlink.com 1.10,2013-08-25 17:57:00,
2013-08-25 14:12:00,89.9,75.0,29.89,SSW,207,2.0,6.0,62,0.00,,,0.00,weatherlink.com 1.10,2013-08-25 18:12:00,
2013-08-25 14:26:00,91.0,76.0,29.89,SW,223,1.0,5.0,61,0.00,,,0.00,weatherlink.com 1.10,2013-08-25 18:26:00,
2013-08-25 14:41:00,91.6,76.0,29.88,SW,219,4.0,7.0,60,0.00,,,0.00,weatherlink.com 1.10,2013-08-25 18:41:00,
2013-08-25 14:55:00,92.8,76.0,29.88,South,181,2.0,5.0,58,0.00,,,0.00,weatherlink.com 1.10,2013-08-25 18:55:00,
2013-08-25 15:10:00,92.9,76.0,29.88,WSW,246,1.0,6.0,58,0.00,,,0.00,weatherlink.com 1.10,2013-08-25 19:10:00,
2013-08-25 15:24:00,93.9,76.0,29.88,WNW,284,1.0,4.0,56,0.00,,,0.00,weatherlink.com 1.10,2013-08-25 19:24:00,
2013-08-25 15:38:00,92.5,75.0,29.88,West,273,1.0,6.0,56,0.00,,,0.00,weatherlink.com 1.10,2013-08-25 19:38:00,
2013-08-25 15:53:00,92.6,74.0,29.88,NNW,342,1.0,6.0,55,0.00,,,0.00,weatherlink.com 1.10,2013-08-25 19:53:00,
2013-08-25 16:07:00,92.5,75.0,29.88,WSW,240,1.0,6.0,56,0.00,,,0.00,weatherlink.com 1.10,2013-08-25 20:07:00,
2013-08-25 16:21:00,92.9,74.0,29.87,WSW,250,1.0,6.0,55,0.00,,,0.00,weatherlink.com 1.10,2013-08-25 20:21:00,
2013-08-25 16:36:00,93.6,76.0,29.87,West,260,1.0,3.0,57,0.00,,,0.00,weatherlink.com 1.10,2013-08-25 20:36:00,
2013-08-25 16:50:00,91.0,74.0,29.87,West,262,0.0,4.0,58,0.00,,,0.00,weatherlink.com 1.10,2013-08-25 20:50:00,
2013-08-25 17:05:00,91.8,76.0,29.86,SW,233,3.0,3.0,61,0.00,,,0.00,weatherlink.com 1.10,2013-08-25 21:05:00,
2013-08-25 17:19:00,92.9,76.0,29.86,WSW,244,0.0,3.0,59,0.00,,,0.00,weatherlink.com 1.10,2013-08-25 21:19:00,
2013-08-25 17:33:00,92.8,76.0,29.86,NW,309,0.0,3.0,59,0.00,,,0.00,weatherlink.com 1.10,2013-08-25 21:33:00,
2013-08-25 17:48:00,93.1,76.0,29.86,NNW,345,0.0,3.0,57,0.00,,,0.00,weatherlink.com 1.10,2013-08-25 21:48:00,
2013-08-25 18:02:00,93.3,76.0,29.86,WSW,252,1.0,1.0,58,0.00,,,0.00,weatherlink.com 1.10,2013-08-25 22:02:00,
2013-08-25 18:16:00,93.2,77.0,29.86,SW,228,0.0,2.0,60,0.00,,,0.00,weatherlink.com 1.10,2013-08-25 22:16:00,
2013-08-25 18:30:00,92.7,77.0,29.86,SW,226,0.0,2.0,61,0.00,,,0.00,weatherlink.com 1.10,2013-08-25 22:30:00,
2013-08-25 18:44:00,92.0,77.0,29.86,SW,232,0.0,2.0,62,0.00,,,0.00,weatherlink.com 1.10,2013-08-25 22:44:00,
2013-08-25 18:59:00,90.1,77.0,29.86,WSW,237,0.0,2.0,66,0.00,,,0.00,weatherlink.com 1.10,2013-08-25 22:59:00,
2013-08-25 19:13:00,88.6,77.0,29.86,SW,234,0.0,2.0,69,0.00,,,0.00,weatherlink.com 1.10,2013-08-25 23:13:00,
2013-08-25 19:27:00,87.6,77.0,29.86,WSW,239,1.0,1.0,71,0.00,,,0.00,weatherlink.com 1.10,2013-08-25 23:27:00,
2013-08-25 19:42:00,86.7,77.0,29.86,WSW,242,0.0,1.0,73,0.00,,,0.00,weatherlink.com 1.10,2013-08-25 23:42:00,
2013-08-25 19:56:00,85.7,77.0,29.86,WSW,242,0.0,1.0,75,0.00,,,0.00,weatherlink.com 1.10,2013-08-25 23:56:00,
2013-08-25 20:11:00,83.7,76.0,29.87,North,354,0.0,3.0,77,0.00,,,0.00,weatherlink.com 1.10,2013-08-26 00:11:00,
2013-08-25 20:25:00,80.5,73.0,29.87,NE,39,0.0,4.0,78,0.00,,,0.00,weatherlink.com 1.10,2013-08-26 00:25:00,
2013-08-25 20:39:00,79.6,73.0,29.87,NE,39,0.0,1.0,80,0.00,,,0.00,weatherlink.com 1.10,2013-08-26 00:39:00,
2013-08-25 20:54:00,78.8,73.0,29.87,NE,39,0.0,0.0,83,0.00,,,0.00,weatherlink.com 1.10,2013-08-26 00:54:00,
2013-08-25 21:08:00,78.1,73.0,29.87,NE,39,0.0,0.0,85,0.00,,,0.00,weatherlink.com 1.10,2013-08-26 01:08:00,
2013-08-25 21:23:00,77.3,73.0,29.87,NE,39,0.0,0.0,87,0.00,,,0.00,weatherlink.com 1.10,2013-08-26 01:23:00,
2013-08-25 21:37:00,76.5,73.0,29.88,NE,39,0.0,0.0,89,0.00,,,0.00,weatherlink.com 1.10,2013-08-26 01:37:00,
2013-08-25 21:51:00,75.7,73.0,29.88,NE,39,0.0,0.0,90,0.00,,,0.00,weatherlink.com 1.10,2013-08-26 01:51:00,
2013-08-25 22:05:00,76.2,73.0,29.88,NE,40,0.0,1.0,90,0.00,,,0.00,weatherlink.com 1.10,2013-08-26 02:05:00,
2013-08-25 22:19:00,78.6,74.0,29.88,WSW,256,0.0,1.0,85,0.00,,,0.00,weatherlink.com 1.10,2013-08-26 02:19:00,
2013-08-25 22:34:00,80.5,74.0,29.89,South,184,1.0,2.0,80,0.00,,,0.00,weatherlink.com 1.10,2013-08-26 02:34:00,
2013-08-25 22:48:00,81.4,73.0,29.89,WSW,257,0.0,5.0,77,0.00,,,0.00,weatherlink.com 1.10,2013-08-26 02:48:00,
2013-08-25 23:03:00,81.6,74.0,29.89,WSW,243,0.0,3.0,77,0.00,,,0.00,weatherlink.com 1.10,2013-08-26 03:03:00,
2013-08-25 23:17:00,81.6,74.0,29.88,WSW,240,2.0,4.0,77,0.00,,,0.00,weatherlink.com 1.10,2013-08-26 03:17:00,
2013-08-25 23:31:00,81.6,74.0,29.88,West,261,0.0,3.0,77,0.00,,,0.00,weatherlink.com 1.10,2013-08-26 03:31:00,
2013-08-25 23:46:00,81.3,73.0,29.87,WSW,253,0.0,3.0,77,0.00,,,0.00,weatherlink.com 1.10,2013-08-26 03:46:00,